Time;durP1;ratioP1;P1;durP2;ratioP2;P2;SDS_P1;SDS_P2;PMS_P1;PMS_P2;Temp;Humidity;BMP_temperature;BMP_pressure;BME280_temperature;BME280_humidity;BME280_pressure;Samples;Min_cycle;Max_cycle;Signal;HPM_P1;HPM_P2
2021/12/02 00:01:38;;;;;;;1.00;0.50;;;;;;;;;;5074212;28;20209;-69
2021/12/02 00:04:04;;;;;;;0.70;0.50;;;;;;;;;;5073533;28;20260;-70
2021/12/02 00:06:31;;;;;;;9.90;0.87;;;;;;;;;;5073688;28;20619;-69
2021/12/02 00:09:00;;;;;;;1.07;0.60;;;;;;;;;;5072855;28;20292;-69
2021/12/02 00:11:27;;;;;;;3.00;0.70;;;;;;;;;;5073303;28;20247;-70
2021/12/02 00:14:01;;;;;;;0.67;0.50;;;;;;;;;;5054620;28;20268;-69
2021/12/02 00:16:34;;;;;;;0.47;0.40;;;;;;;;;;5072275;28;20620;-70
2021/12/02 00:22:01;;;;;;;0.50;0.43;;;;;;;;;;5073222;28;20209;-70
2021/12/02 00:24:30;;;;;;;0.50;0.50;;;;;;;;;;5071506;28;20758;-69
2021/12/02 00:26:57;;;;;;;0.67;0.60;;;;;;;;;;5073547;28;20634;-72
2021/12/02 00:29:27;;;;;;;0.73;0.50;;;;;;;;;;5072132;28;20296;-69
2021/12/02 00:31:53;;;;;;;1.00;0.63;;;;;;;;;;5071910;28;20231;-70
2021/12/02 00:34:24;;;;;;;0.50;0.47;;;;;;;;;;5072350;28;20233;-70
2021/12/02 00:36:53;;;;;;;0.63;0.50;;;;;;;;;;5073007;28;20202;-70
2021/12/02 00:39:36;;;;;;;0.70;0.50;;;;;;;;;;5071623;28;20217;-70
2021/12/02 00:42:03;;;;;;;0.50;0.50;;;;;;;;;;5073122;28;20240;-70
2021/12/02 00:44:33;;;;;;;0.90;0.50;;;;;;;;;;5072465;28;20278;-70
2021/12/02 00:47:04;;;;;;;0.60;0.50;;;;;;;;;;5073129;28;20658;-71
2021/12/02 00:49:36;;;;;;;0.40;0.40;;;;;;;;;;5071513;28;20209;-71
2021/12/02 00:52:05;;;;;;;0.40;0.30;;;;;;;;;;5072792;28;20229;-70
2021/12/02 00:54:31;;;;;;;0.47;0.40;;;;;;;;;;5070672;28;20316;-70
2021/12/02 00:57:02;;;;;;;0.40;0.40;;;;;;;;;;5072602;28;20201;-71
2021/12/02 00:59:29;;;;;;;0.50;0.43;;;;;;;;;;5072905;28;20205;-72
2021/12/02 01:36:08;;;;;;;0.60;0.30;;;;;;;;;;5070055;28;20529;-72
2021/12/02 01:38:40;;;;;;;0.30;0.30;;;;;;;;;;5068718;28;20700;-72
2021/12/02 01:41:07;;;;;;;2.13;0.50;;;;;;;;;;5069691;28;20299;-72
2021/12/02 01:43:47;;;;;;;2.80;0.50;;;;;;;;;;5068605;28;20231;-71
2021/12/02 01:46:14;;;;;;;0.27;0.27;;;;;;;;;;5069938;28;20200;-72
2021/12/02 01:48:42;;;;;;;0.90;0.30;;;;;;;;;;5069693;28;20205;-70
2021/12/02 01:51:11;;;;;;;0.33;0.33;;;;;;;;;;5068560;28;20288;-71
2021/12/02 01:53:38;;;;;;;0.57;0.53;;;;;;;;;;5067639;28;20229;-70
2021/12/02 01:56:10;;;;;;;0.47;0.30;;;;;;;;;;5069116;28;20290;-70
2021/12/02 01:58:42;;;;;;;0.80;0.37;;;;;;;;;;5069440;28;20233;-70
2021/12/02 02:01:13;;;;;;;0.37;0.37;;;;;;;;;;5068240;28;20695;-71
2021/12/02 02:03:43;;;;;;;0.30;0.30;;;;;;;;;;5068568;28;20279;-72
2021/12/02 02:06:13;;;;;;;0.90;0.60;;;;;;;;;;5068949;28;20295;-72
2021/12/02 02:08:44;;;;;;;0.40;0.40;;;;;;;;;;5068990;28;20201;-72
2021/12/02 02:11:11;;;;;;;0.40;0.40;;;;;;;;;;5068003;28;20263;-71
2021/12/02 02:13:40;;;;;;;1.43;0.33;;;;;;;;;;5068538;28;20256;-70
2021/12/02 02:16:06;;;;;;;1.07;0.40;;;;;;;;;;5067786;28;20225;-72
2021/12/02 02:18:34;;;;;;;1.57;0.40;;;;;;;;;;5068161;28;20217;-71
2021/12/02 02:21:02;;;;;;;2.50;0.50;;;;;;;;;;5068564;28;20964;-70
2021/12/02 02:23:31;;;;;;;0.87;0.80;;;;;;;;;;5067267;28;20240;-69
2021/12/02 02:25:58;;;;;;;3.07;0.60;;;;;;;;;;5068977;28;20300;-71
2021/12/02 02:28:25;;;;;;;3.17;0.60;;;;;;;;;;5067682;28;20248;-72
2021/12/02 02:30:52;;;;;;;0.67;0.67;;;;;;;;;;5068770;28;20896;-69
2021/12/02 02:33:20;;;;;;;1.40;0.63;;;;;;;;;;5067817;28;20617;-71
2021/12/02 02:35:47;;;;;;;1.00;0.63;;;;;;;;;;5068336;28;20225;-72
2021/12/02 02:38:14;;;;;;;1.23;0.60;;;;;;;;;;5068368;28;20935;-72
2021/12/02 02:40:44;;;;;;;1.20;0.50;;;;;;;;;;5068589;28;20225;-71
2021/12/02 02:43:21;;;;;;;0.90;0.70;;;;;;;;;;5067772;28;20674;-71
2021/12/02 02:45:48;;;;;;;2.13;1.00;;;;;;;;;;5064313;28;20233;-70
2021/12/02 02:48:15;;;;;;;0.57;0.53;;;;;;;;;;5055028;28;20206;-70
2021/12/02 02:50:41;;;;;;;1.80;0.70;;;;;;;;;;5053972;28;20202;-69
2021/12/02 02:53:15;;;;;;;0.50;0.50;;;;;;;;;;5054700;28;20240;-70
2021/12/02 02:55:47;;;;;;;2.47;0.63;;;;;;;;;;5053646;28;20245;-70
2021/12/02 02:58:29;;;;;;;1.23;0.80;;;;;;;;;;5053485;28;20554;-69
2021/12/02 03:01:16;;;;;;;1.43;1.00;;;;;;;;;;5052800;28;20216;-69
2021/12/02 03:09:13;;;;;;;2.13;0.93;;;;;;;;;;5033835;28;20256;-69
2021/12/02 03:11:45;;;;;;;0.50;0.50;;;;;;;;;;5050472;28;20244;-69
2021/12/02 03:14:18;;;;;;;0.30;0.30;;;;;;;;;;5053149;28;20233;-70
2021/12/02 03:16:44;;;;;;;0.30;0.30;;;;;;;;;;5053912;28;20292;-69
2021/12/02 03:19:15;;;;;;;1.93;0.47;;;;;;;;;;5053798;28;20206;-69
2021/12/02 03:21:41;;;;;;;1.27;0.40;;;;;;;;;;5053764;28;20233;-69
2021/12/02 03:24:08;;;;;;;0.53;0.50;;;;;;;;;;5053141;28;20668;-68
2021/12/02 03:26:34;;;;;;;2.20;0.63;;;;;;;;;;5053760;28;20285;-70
2021/12/02 03:29:02;;;;;;;2.83;0.60;;;;;;;;;;5052677;28;20260;-69
2021/12/02 03:31:28;;;;;;;1.17;0.33;;;;;;;;;;5052600;28;20206;-69
2021/12/02 03:33:55;;;;;;;0.50;0.40;;;;;;;;;;5052650;28;20264;-69
2021/12/02 03:36:21;;;;;;;0.63;0.50;;;;;;;;;;5053851;28;20280;-70
2021/12/02 03:38:48;;;;;;;0.97;0.50;;;;;;;;;;5052257;28;20687;-70
2021/12/02 03:41:16;;;;;;;0.27;0.27;;;;;;;;;;5053474;28;20224;-69
2021/12/02 03:43:44;;;;;;;2.53;0.73;;;;;;;;;;5035036;28;20224;-69
2021/12/02 03:46:11;;;;;;;1.20;0.37;;;;;;;;;;5053240;28;20216;-69
2021/12/02 03:48:38;;;;;;;0.93;0.50;;;;;;;;;;5053169;28;20675;-70
2021/12/02 03:51:05;;;;;;;0.67;0.60;;;;;;;;;;5053069;28;20725;-70
2021/12/02 03:53:32;;;;;;;1.13;0.50;;;;;;;;;;5051612;28;20217;-71
2021/12/02 03:55:59;;;;;;;0.90;0.60;;;;;;;;;;5053073;28;20308;-70
2021/12/02 03:58:25;;;;;;;0.83;0.47;;;;;;;;;;5052160;28;20236;-70
2021/12/02 04:00:51;;;;;;;1.37;0.57;;;;;;;;;;5051710;28;20294;-70
2021/12/02 04:03:18;;;;;;;1.17;0.57;;;;;;;;;;5051990;28;20651;-70
2021/12/02 04:05:45;;;;;;;0.90;0.57;;;;;;;;;;5050510;28;20241;-70
2021/12/02 04:08:12;;;;;;;0.67;0.50;;;;;;;;;;5032805;28;20210;-70
2021/12/02 04:10:40;;;;;;;4.33;0.67;;;;;;;;;;5039608;28;20259;-70
2021/12/02 04:15:39;;;;;;;0.93;0.57;;;;;;;;;;5052349;28;20287;-70
2021/12/02 04:18:06;;;;;;;0.57;0.43;;;;;;;;;;5051983;28;20198;-70
2021/12/02 04:20:32;;;;;;;1.73;0.60;;;;;;;;;;5052762;28;20205;-70
2021/12/02 04:23:02;;;;;;;2.03;0.60;;;;;;;;;;5050643;28;20273;-70
2021/12/02 04:25:28;;;;;;;2.07;0.50;;;;;;;;;;5052448;28;20703;-70
2021/12/02 04:27:55;;;;;;;2.43;0.70;;;;;;;;;;5052601;28;20208;-70
2021/12/02 04:30:23;;;;;;;0.60;0.60;;;;;;;;;;5052529;28;20359;-70
2021/12/02 04:32:52;;;;;;;0.63;0.60;;;;;;;;;;5051628;28;20296;-70
2021/12/02 04:35:27;;;;;;;0.87;0.60;;;;;;;;;;5051752;28;20713;-70
2021/12/02 04:37:54;;;;;;;4.53;0.70;;;;;;;;;;5052405;28;20201;-70
2021/12/02 04:40:21;;;;;;;0.63;0.40;;;;;;;;;;5052117;28;20209;-70
2021/12/02 04:42:51;;;;;;;0.50;0.50;;;;;;;;;;5051305;28;20580;-70
2021/12/02 04:45:17;;;;;;;3.33;0.70;;;;;;;;;;5052073;28;20245;-71
2021/12/02 04:47:47;;;;;;;1.93;0.50;;;;;;;;;;5052209;28;20206;-68
2021/12/02 04:50:13;;;;;;;1.03;0.60;;;;;;;;;;5051935;28;20579;-70
2021/12/02 04:52:39;;;;;;;0.60;0.60;;;;;;;;;;5051399;28;20210;-69
2021/12/02 04:55:07;;;;;;;0.60;0.60;;;;;;;;;;5051813;28;20283;-69
2021/12/02 04:57:33;;;;;;;0.73;0.60;;;;;;;;;;5050726;28;20607;-70
2021/12/02 05:00:00;;;;;;;0.40;0.40;;;;;;;;;;5051837;28;20765;-70
2021/12/02 05:02:27;;;;;;;1.50;0.50;;;;;;;;;;5051435;28;20198;-69
2021/12/02 05:04:53;;;;;;;0.67;0.67;;;;;;;;;;5034184;28;20230;-69
2021/12/02 05:07:20;;;;;;;0.73;0.70;;;;;;;;;;5034894;28;20773;-70
2021/12/02 05:09:46;;;;;;;1.13;0.50;;;;;;;;;;5032173;28;20202;-70
2021/12/02 05:12:14;;;;;;;2.63;0.97;;;;;;;;;;5050325;28;20214;-70
2021/12/02 05:14:41;;;;;;;1.17;0.70;;;;;;;;;;5051519;28;20328;-70
2021/12/02 05:17:07;;;;;;;1.67;0.80;;;;;;;;;;5051831;28;20233;-69
2021/12/02 05:19:34;;;;;;;2.03;0.80;;;;;;;;;;5051294;28;20296;-70
2021/12/02 05:22:02;;;;;;;2.50;0.90;;;;;;;;;;5050286;28;20205;-70
2021/12/02 05:24:29;;;;;;;1.80;0.93;;;;;;;;;;5050847;28;20241;-70
2021/12/02 05:26:56;;;;;;;6.37;1.20;;;;;;;;;;5051650;28;20312;-70
2021/12/02 05:29:22;;;;;;;1.30;0.60;;;;;;;;;;5051320;28;20293;-70
2021/12/02 05:31:51;;;;;;;2.73;0.90;;;;;;;;;;5051434;28;20296;-69
2021/12/02 05:34:17;;;;;;;6.03;0.93;;;;;;;;;;5050387;28;20263;-70
2021/12/02 05:36:44;;;;;;;1.13;0.70;;;;;;;;;;5050142;28;20622;-70
2021/12/02 05:39:10;;;;;;;2.10;0.93;;;;;;;;;;5051330;28;20201;-70
2021/12/02 05:41:37;;;;;;;1.77;0.60;;;;;;;;;;5051305;28;20237;-70
2021/12/02 05:44:03;;;;;;;0.20;0.20;;;;;;;;;;5050770;28;20231;-69
2021/12/02 05:46:30;;;;;;;2.47;1.10;;;;;;;;;;5051237;28;20236;-69
2021/12/02 05:48:56;;;;;;;0.50;0.50;;;;;;;;;;5051152;28;20626;-70
2021/12/02 05:51:23;;;;;;;7.00;0.90;;;;;;;;;;5050756;28;20206;-69
2021/12/02 05:53:49;;;;;;;1.97;0.83;;;;;;;;;;5038055;28;20226;-69
2021/12/02 05:56:16;;;;;;;1.07;0.67;;;;;;;;;;5039720;28;20746;-69
2021/12/02 05:58:42;;;;;;;1.13;0.70;;;;;;;;;;5039971;28;20220;-71
2021/12/02 06:01:09;;;;;;;3.13;1.00;;;;;;;;;;5040483;28;20671;-69
2021/12/02 06:03:38;;;;;;;6.43;0.87;;;;;;;;;;5039854;28;20198;-69
2021/12/02 06:06:06;;;;;;;2.50;0.70;;;;;;;;;;5038500;28;20315;-69
2021/12/02 06:08:33;;;;;;;0.40;0.40;;;;;;;;;;5040779;28;20282;-69
2021/12/02 06:10:59;;;;;;;3.03;0.90;;;;;;;;;;5041057;28;20293;-70
2021/12/02 06:13:26;;;;;;;1.73;0.77;;;;;;;;;;5050060;28;20285;-71
2021/12/02 06:15:53;;;;;;;0.83;0.50;;;;;;;;;;5049698;28;20209;-71
2021/12/02 06:18:19;;;;;;;1.70;0.70;;;;;;;;;;5050094;28;20205;-71
2021/12/02 06:20:51;;;;;;;0.50;0.50;;;;;;;;;;5051393;28;20224;-72
2021/12/02 06:23:18;;;;;;;6.23;1.00;;;;;;;;;;5053096;28;20205;-72
2021/12/02 06:25:45;;;;;;;1.90;0.97;;;;;;;;;;5054959;28;20231;-71
2021/12/02 06:28:11;;;;;;;1.87;0.77;;;;;;;;;;5053483;28;20588;-71
2021/12/02 06:30:40;;;;;;;1.40;0.63;;;;;;;;;;5053760;28;20233;-71
2021/12/02 06:33:08;;;;;;;1.40;0.50;;;;;;;;;;5053856;28;20240;-70
2021/12/02 06:35:37;;;;;;;1.10;0.80;;;;;;;;;;5033178;28;20242;-70
2021/12/02 06:38:04;;;;;;;2.73;0.73;;;;;;;;;;5034725;28;20246;-69
2021/12/02 06:40:32;;;;;;;2.87;0.90;;;;;;;;;;5034635;28;20301;-70
2021/12/02 06:42:58;;;;;;;4.83;1.00;;;;;;;;;;5033773;28;20210;-70
2021/12/02 06:45:25;;;;;;;3.13;1.00;;;;;;;;;;5034450;28;20277;-70
2021/12/02 06:47:57;;;;;;;2.40;0.97;;;;;;;;;;5016815;28;20210;-70
2021/12/02 06:50:24;;;;;;;0.60;0.60;;;;;;;;;;5034633;28;20587;-71
2021/12/02 06:52:51;;;;;;;1.20;1.03;;;;;;;;;;5032565;28;20221;-69
2021/12/02 06:55:24;;;;;;;0.80;0.60;;;;;;;;;;5032979;28;20993;-70
2021/12/02 06:57:51;;;;;;;2.20;0.97;;;;;;;;;;5034168;28;20573;-73
2021/12/02 07:00:24;;;;;;;1.90;0.70;;;;;;;;;;5016440;28;20202;-72
2021/12/02 07:02:54;;;;;;;1.30;0.70;;;;;;;;;;5033627;28;20210;-70
2021/12/02 07:05:22;;;;;;;1.07;0.70;;;;;;;;;;5034094;28;20230;-70
2021/12/02 07:07:49;;;;;;;0.63;0.63;;;;;;;;;;5040189;28;20203;-71
2021/12/02 07:10:23;;;;;;;0.90;0.67;;;;;;;;;;5046574;28;20230;-71
2021/12/02 07:12:52;;;;;;;3.10;0.87;;;;;;;;;;5051783;28;20449;-70
2021/12/02 07:15:31;;;;;;;1.33;0.97;;;;;;;;;;5051317;28;20864;-70
2021/12/02 07:18:01;;;;;;;1.60;0.77;;;;;;;;;;5051048;28;20209;-71
2021/12/02 07:20:33;;;;;;;0.90;0.63;;;;;;;;;;5052321;28;20202;-72
2021/12/02 07:23:00;;;;;;;1.30;1.10;;;;;;;;;;5034302;28;20270;-72
2021/12/02 07:25:30;;;;;;;2.97;1.07;;;;;;;;;;5045732;28;20229;-71
2021/12/02 07:27:57;;;;;;;0.97;0.67;;;;;;;;;;5050270;28;20205;-70
2021/12/02 07:30:24;;;;;;;1.00;0.50;;;;;;;;;;5036662;28;20198;-70
2021/12/02 07:32:57;;;;;;;1.43;0.90;;;;;;;;;;5031941;28;20297;-67
2021/12/02 07:35:25;;;;;;;0.80;0.80;;;;;;;;;;5048433;28;20652;-67
2021/12/02 07:37:53;;;;;;;0.60;0.60;;;;;;;;;;5052009;28;20208;-67
2021/12/02 07:40:21;;;;;;;0.87;0.80;;;;;;;;;;5051632;28;20271;-70
2021/12/02 07:42:51;;;;;;;0.87;0.80;;;;;;;;;;5053435;28;20248;-69
2021/12/02 07:45:20;;;;;;;2.23;0.80;;;;;;;;;;5053910;28;20240;-68
2021/12/02 07:47:55;;;;;;;1.27;0.80;;;;;;;;;;5054114;28;20206;-68
2021/12/02 07:50:22;;;;;;;0.73;0.60;;;;;;;;;;5053010;28;20201;-69
2021/12/02 07:52:55;;;;;;;1.30;0.50;;;;;;;;;;5036137;28;20210;-68
2021/12/02 07:55:34;;;;;;;2.20;0.70;;;;;;;;;;5052956;28;20230;-68
2021/12/02 07:58:04;;;;;;;0.47;0.47;;;;;;;;;;5054269;28;20208;-68
2021/12/02 08:00:34;;;;;;;5.93;0.80;;;;;;;;;;5051795;28;20301;-70
2021/12/02 08:03:05;;;;;;;1.93;0.80;;;;;;;;;;5053176;28;20221;-69
2021/12/02 08:05:35;;;;;;;1.43;0.60;;;;;;;;;;5035640;28;20656;-68
2021/12/02 08:08:10;;;;;;;1.30;1.00;;;;;;;;;;5053079;28;20228;-69
2021/12/02 08:10:40;;;;;;;1.63;0.90;;;;;;;;;;5051449;28;20198;-69
2021/12/02 08:13:06;;;;;;;0.63;0.63;;;;;;;;;;5051993;28;20230;-69
2021/12/02 08:15:33;;;;;;;1.33;0.60;;;;;;;;;;5052676;28;20690;-69
2021/12/02 08:18:00;;;;;;;2.10;0.50;;;;;;;;;;5051972;28;20213;-69
2021/12/02 08:20:27;;;;;;;2.70;0.80;;;;;;;;;;5051864;28;20240;-69
2021/12/02 08:22:54;;;;;;;0.50;0.50;;;;;;;;;;5052700;28;20202;-70
2021/12/02 08:25:21;;;;;;;0.90;0.40;;;;;;;;;;5052186;28;20229;-68
2021/12/02 08:27:49;;;;;;;1.60;0.80;;;;;;;;;;5053196;28;20226;-67
2021/12/02 08:30:16;;;;;;;1.17;0.50;;;;;;;;;;5052001;28;20236;-68
2021/12/02 08:32:45;;;;;;;2.57;0.77;;;;;;;;;;5050658;28;20245;-68
2021/12/02 08:35:13;;;;;;;1.53;0.50;;;;;;;;;;5051069;28;20312;-69
2021/12/02 08:37:44;;;;;;;1.27;0.53;;;;;;;;;;5051097;28;20213;-71
2021/12/02 08:40:11;;;;;;;1.67;0.53;;;;;;;;;;5050638;28;20296;-72
2021/12/02 08:42:38;;;;;;;2.03;0.70;;;;;;;;;;5051614;28;20294;-71
2021/12/02 08:45:05;;;;;;;1.45;0.60;;;;;;;;;;5051416;28;20326;-71
2021/12/02 08:47:31;;;;;;;0.98;0.60;;;;;;;;;;5051893;28;20320;-71
2021/12/02 08:49:58;;;;;;;1.33;0.83;;;;;;;;;;5051862;28;20298;-71
2021/12/02 08:52:26;;;;;;;1.30;0.60;;;;;;;;;;5051206;28;20206;-72
2021/12/02 08:54:53;;;;;;;1.27;0.63;;;;;;;;;;5051424;28;20236;-69
2021/12/02 08:57:39;;;;;;;1.60;0.73;;;;;;;;;;5051818;28;20694;-71
2021/12/02 09:00:07;;;;;;;1.07;0.50;;;;;;;;;;5051751;28;20284;-71
2021/12/02 09:02:33;;;;;;;0.43;0.30;;;;;;;;;;5051082;28;20206;-70
2021/12/02 09:05:00;;;;;;;1.40;0.57;;;;;;;;;;5051672;28;20310;-71
2021/12/02 09:07:26;;;;;;;2.10;0.37;;;;;;;;;;5033923;28;20237;-70
2021/12/02 09:09:53;;;;;;;1.10;0.50;;;;;;;;;;5033468;28;20206;-70
2021/12/02 09:12:19;;;;;;;2.43;0.60;;;;;;;;;;5051046;28;20739;-70
2021/12/02 09:14:46;;;;;;;1.00;0.47;;;;;;;;;;5051427;28;20309;-70
2021/12/02 09:17:12;;;;;;;1.53;0.63;;;;;;;;;;5051440;28;20678;-70
2021/12/02 09:19:38;;;;;;;2.43;0.83;;;;;;;;;;5051307;28;20706;-70
2021/12/02 09:22:05;;;;;;;1.40;0.57;;;;;;;;;;5051311;28;20584;-70
2021/12/02 09:24:31;;;;;;;1.90;0.70;;;;;;;;;;5051095;28;20310;-69
2021/12/02 09:26:57;;;;;;;3.17;0.90;;;;;;;;;;5051606;28;20317;-69
2021/12/02 09:29:24;;;;;;;0.63;0.60;;;;;;;;;;5051352;28;20761;-69
2021/12/02 09:31:51;;;;;;;3.60;0.63;;;;;;;;;;5051452;28;20296;-69
2021/12/02 09:34:18;;;;;;;4.90;0.87;;;;;;;;;;5050129;28;20313;-68
2021/12/02 09:36:46;;;;;;;1.83;0.90;;;;;;;;;;5051150;28;20248;-69
2021/12/02 09:39:14;;;;;;;1.83;0.90;;;;;;;;;;5051495;28;20300;-68
2021/12/02 09:41:41;;;;;;;1.57;0.83;;;;;;;;;;5051375;28;20209;-69
2021/12/02 09:44:08;;;;;;;2.00;0.90;;;;;;;;;;5050482;28;20308;-68
2021/12/02 09:46:35;;;;;;;1.80;0.90;;;;;;;;;;5051159;28;20309;-68
2021/12/02 09:49:03;;;;;;;2.67;0.80;;;;;;;;;;5051037;28;20205;-69
2021/12/02 09:51:41;;;;;;;1.80;0.90;;;;;;;;;;5051109;28;20270;-68
2021/12/02 09:54:22;;;;;;;0.50;0.50;;;;;;;;;;5049249;28;20648;-68
2021/12/02 09:56:52;;;;;;;0.50;0.50;;;;;;;;;;5053035;28;20241;-69
2021/12/02 10:02:13;;;;;;;1.03;0.60;;;;;;;;;;5055267;28;20296;-69
2021/12/02 10:04:57;;;;;;;1.13;0.87;;;;;;;;;;5054853;28;20605;-70
2021/12/02 10:07:31;;;;;;;2.97;1.13;;;;;;;;;;5039044;28;20705;-70
2021/12/02 10:10:08;;;;;;;3.17;0.90;;;;;;;;;;5037046;28;20217;-71
2021/12/02 10:12:37;;;;;;;2.00;0.80;;;;;;;;;;5054659;28;20209;-70
2021/12/02 10:15:12;;;;;;;1.27;0.80;;;;;;;;;;5055235;28;20399;-70
2021/12/02 10:17:46;;;;;;;3.43;0.70;;;;;;;;;;5055360;28;20296;-70
2021/12/02 10:23:04;;;;;;;1.93;1.30;;;;;;;;;;5054467;28;20205;-70
2021/12/02 10:25:32;;;;;;;3.53;0.80;;;;;;;;;;5054657;28;20597;-70
2021/12/02 10:28:03;;;;;;;1.53;0.97;;;;;;;;;;5053263;28;20320;-70
2021/12/02 10:30:29;;;;;;;1.43;1.00;;;;;;;;;;5054465;28;20697;-69
2021/12/02 10:32:56;;;;;;;3.23;0.70;;;;;;;;;;5053719;28;20208;-69
2021/12/02 10:35:35;;;;;;;2.27;0.90;;;;;;;;;;5054133;28;20226;-70
2021/12/02 10:38:02;;;;;;;1.33;0.90;;;;;;;;;;5054745;28;20202;-70
2021/12/02 10:40:28;;;;;;;1.73;1.03;;;;;;;;;;5054360;28;20218;-70
2021/12/02 10:43:04;;;;;;;0.63;0.63;;;;;;;;;;5053724;28;20201;-70
2021/12/02 10:45:30;;;;;;;1.03;0.70;;;;;;;;;;5054226;28;20738;-70
2021/12/02 10:47:57;;;;;;;1.37;0.90;;;;;;;;;;5054487;28;20262;-69
2021/12/02 10:50:25;;;;;;;0.90;0.80;;;;;;;;;;5054286;28;20233;-71
2021/12/02 10:52:52;;;;;;;0.93;0.80;;;;;;;;;;5053717;28;20289;-70
2021/12/02 10:55:22;;;;;;;3.77;1.37;;;;;;;;;;5053806;28;20218;-70
2021/12/02 10:57:54;;;;;;;1.60;0.90;;;;;;;;;;5053807;28;20216;-68
2021/12/02 11:00:24;;;;;;;1.50;0.83;;;;;;;;;;5053868;28;20369;-71
2021/12/02 11:02:53;;;;;;;1.33;0.87;;;;;;;;;;5053487;28;20288;-68
2021/12/02 11:05:34;;;;;;;3.00;1.10;;;;;;;;;;5053586;28;20780;-68
2021/12/02 11:08:04;;;;;;;2.97;0.90;;;;;;;;;;5033139;28;20570;-68
2021/12/02 11:10:34;;;;;;;1.67;0.97;;;;;;;;;;5040443;28;20560;-69
2021/12/02 11:13:01;;;;;;;2.97;1.07;;;;;;;;;;5053449;28;20206;-69
2021/12/02 11:15:29;;;;;;;2.40;0.87;;;;;;;;;;5053754;28;20646;-68
2021/12/02 11:18:01;;;;;;;1.73;0.90;;;;;;;;;;5053678;28;20237;-68
2021/12/02 11:20:35;;;;;;;0.60;0.57;;;;;;;;;;5053653;28;20289;-68
2021/12/02 11:23:11;;;;;;;1.47;0.63;;;;;;;;;;5053009;28;20678;-69
2021/12/02 11:25:40;;;;;;;2.50;1.10;;;;;;;;;;5053763;28;20316;-68
2021/12/02 11:28:07;;;;;;;3.07;0.97;;;;;;;;;;5053509;28;20313;-68
2021/12/02 11:30:35;;;;;;;1.33;0.63;;;;;;;;;;5053488;28;20249;-68
2021/12/02 11:33:28;;;;;;;0.50;0.43;;;;;;;;;;5052657;28;20198;-68
2021/12/02 11:35:54;;;;;;;1.30;0.60;;;;;;;;;;5033347;28;20614;-68
2021/12/02 11:38:24;;;;;;;2.07;0.90;;;;;;;;;;5033346;28;20574;-68
2021/12/02 11:40:52;;;;;;;1.20;0.70;;;;;;;;;;5033318;28;20211;-69
2021/12/02 11:43:20;;;;;;;3.50;0.70;;;;;;;;;;5032690;28;20249;-68
2021/12/02 11:45:48;;;;;;;0.50;0.50;;;;;;;;;;5033083;28;20301;-68
2021/12/02 11:48:16;;;;;;;1.47;0.70;;;;;;;;;;5032982;28;20713;-70
2021/12/02 11:50:43;;;;;;;1.90;0.70;;;;;;;;;;5032917;28;20726;-70
2021/12/02 11:53:10;;;;;;;1.23;0.70;;;;;;;;;;5032148;28;20711;-70
2021/12/02 11:55:38;;;;;;;0.70;0.50;;;;;;;;;;5032744;28;20313;-70
2021/12/02 11:58:05;;;;;;;0.97;0.70;;;;;;;;;;5032803;28;20214;-68
2021/12/02 12:00:32;;;;;;;1.60;0.70;;;;;;;;;;5032850;28;20217;-68
2021/12/02 12:03:21;;;;;;;0.83;0.50;;;;;;;;;;5032120;28;20245;-69
2021/12/02 12:06:02;;;;;;;0.80;0.60;;;;;;;;;;5031994;28;20703;-69
2021/12/02 12:08:29;;;;;;;1.40;0.70;;;;;;;;;;5052294;28;20252;-69
2021/12/02 12:10:56;;;;;;;1.07;0.53;;;;;;;;;;5052439;28;20329;-69
2021/12/02 12:13:24;;;;;;;3.27;0.60;;;;;;;;;;5052031;28;20216;-69
2021/12/02 12:15:51;;;;;;;1.40;0.87;;;;;;;;;;5052600;28;20202;-69
2021/12/02 12:18:20;;;;;;;0.80;0.60;;;;;;;;;;5051964;28;20242;-70
2021/12/02 12:20:58;;;;;;;2.37;0.80;;;;;;;;;;5052031;28;20201;-70
2021/12/02 12:23:29;;;;;;;1.23;0.60;;;;;;;;;;5051607;28;20669;-70
2021/12/02 12:26:08;;;;;;;0.87;0.40;;;;;;;;;;5052613;28;20205;-67
2021/12/02 12:28:53;;;;;;;0.93;0.60;;;;;;;;;;5052242;28;20257;-67
2021/12/02 12:31:21;;;;;;;2.50;0.80;;;;;;;;;;5051974;28;20312;-69
2021/12/02 12:33:47;;;;;;;1.60;0.60;;;;;;;;;;5051172;28;20280;-68
2021/12/02 12:36:37;;;;;;;0.90;0.80;;;;;;;;;;5052382;28;20206;-67
2021/12/02 12:39:20;;;;;;;0.33;0.27;;;;;;;;;;5049141;28;20297;-69
2021/12/02 12:42:06;;;;;;;3.17;0.70;;;;;;;;;;5051997;28;20289;-69
2021/12/02 12:44:51;;;;;;;0.43;0.30;;;;;;;;;;5051534;28;20268;-69
2021/12/02 12:47:19;;;;;;;0.20;0.20;;;;;;;;;;5052114;28;20225;-68
2021/12/02 12:49:46;;;;;;;0.20;0.20;;;;;;;;;;5051844;28;20237;-68
2021/12/02 12:52:16;;;;;;;0.10;0.10;;;;;;;;;;5051282;28;20573;-68
2021/12/02 12:55:02;;;;;;;0.20;0.20;;;;;;;;;;5051604;28;20308;-68
2021/12/02 12:57:29;;;;;;;0.93;0.40;;;;;;;;;;5051838;28;20642;-68
2021/12/02 12:59:55;;;;;;;0.20;0.20;;;;;;;;;;5050988;28;20297;-68
2021/12/02 13:02:22;;;;;;;0.37;0.33;;;;;;;;;;5051379;28;20300;-68
2021/12/02 13:04:54;;;;;;;0.20;0.20;;;;;;;;;;5051618;28;20230;-68
2021/12/02 13:07:42;;;;;;;2.60;0.53;;;;;;;;;;5033238;28;20223;-67
2021/12/02 13:10:20;;;;;;;1.23;0.70;;;;;;;;;;5036528;28;20204;-68
2021/12/02 13:12:58;;;;;;;3.27;0.50;;;;;;;;;;5051049;28;20202;-68
2021/12/02 13:15:25;;;;;;;0.87;0.30;;;;;;;;;;5051369;28;20278;-68
2021/12/02 13:17:57;;;;;;;0.23;0.20;;;;;;;;;;5051538;28;20297;-68
2021/12/02 13:20:34;;;;;;;0.87;0.40;;;;;;;;;;5051469;28;20663;-68
2021/12/02 13:23:12;;;;;;;0.97;0.57;;;;;;;;;;5050771;28;20235;-68
2021/12/02 13:25:46;;;;;;;1.43;0.77;;;;;;;;;;5051277;28;20225;-68
2021/12/02 13:28:13;;;;;;;1.03;0.50;;;;;;;;;;5051326;28;20643;-68
2021/12/02 13:30:40;;;;;;;1.27;0.60;;;;;;;;;;5050835;28;20252;-68
2021/12/02 13:33:08;;;;;;;1.10;0.70;;;;;;;;;;5050472;28;20558;-68
2021/12/02 13:35:34;;;;;;;6.00;0.97;;;;;;;;;;5050824;28;20272;-68
2021/12/02 13:38:02;;;;;;;0.83;0.40;;;;;;;;;;5051085;28;20212;-68
2021/12/02 13:40:40;;;;;;;0.93;0.40;;;;;;;;;;5051688;28;20260;-68
2021/12/02 13:43:07;;;;;;;0.30;0.30;;;;;;;;;;5050764;28;20206;-68
2021/12/02 13:45:33;;;;;;;0.77;0.60;;;;;;;;;;5051154;28;20257;-68
2021/12/02 13:48:12;;;;;;;0.90;0.43;;;;;;;;;;5050802;28;20714;-68
2021/12/02 13:50:45;;;;;;;0.60;0.60;;;;;;;;;;5050910;28;20288;-68
2021/12/02 13:53:11;;;;;;;1.67;0.70;;;;;;;;;;5050548;28;20206;-68
2021/12/02 13:55:38;;;;;;;0.93;0.43;;;;;;;;;;5051078;28;20304;-68
2021/12/02 13:58:48;;;;;;;1.40;0.43;;;;;;;;;;5049855;28;20669;-68
2021/12/02 14:00:59;;;;;;;2.80;0.50;;;;;;;;;;5047989;28;20205;-68
2021/12/02 14:03:28;;;;;;;0.50;0.40;;;;;;;;;;5050492;28;20292;-69
2021/12/02 14:06:01;;;;;;;0.43;0.40;;;;;;;;;;5046679;28;20203;-68
2021/12/02 14:08:29;;;;;;;0.40;0.40;;;;;;;;;;5031037;28;20715;-68
2021/12/02 14:10:56;;;;;;;2.37;0.50;;;;;;;;;;5041488;28;20236;-68
2021/12/02 14:13:24;;;;;;;1.80;0.47;;;;;;;;;;5050204;28;20198;-68
2021/12/02 14:15:53;;;;;;;0.57;0.50;;;;;;;;;;5050941;28;20721;-68
2021/12/02 14:18:24;;;;;;;1.00;0.50;;;;;;;;;;5051082;28;20301;-68
2021/12/02 14:21:01;;;;;;;0.53;0.50;;;;;;;;;;5050932;28;20297;-68
2021/12/02 14:23:36;;;;;;;0.63;0.60;;;;;;;;;;5050268;28;20296;-68
2021/12/02 14:26:02;;;;;;;0.40;0.30;;;;;;;;;;5050774;28;20635;-68
2021/12/02 14:28:28;;;;;;;3.80;0.67;;;;;;;;;;5051058;28;20670;-68
2021/12/02 14:30:58;;;;;;;0.73;0.40;;;;;;;;;;5050906;28;20914;-68
2021/12/02 14:33:24;;;;;;;0.37;0.20;;;;;;;;;;5049033;28;20210;-69
2021/12/02 14:35:56;;;;;;;0.67;0.53;;;;;;;;;;5049525;28;20253;-68
2021/12/02 14:38:23;;;;;;;0.33;0.30;;;;;;;;;;5050828;28;20284;-68
2021/12/02 14:40:53;;;;;;;0.97;0.40;;;;;;;;;;5050412;28;20228;-69
2021/12/02 14:43:21;;;;;;;0.40;0.40;;;;;;;;;;5052151;28;20238;-68
2021/12/02 14:45:51;;;;;;;0.87;0.33;;;;;;;;;;5054452;28;20210;-68
2021/12/02 14:48:22;;;;;;;0.60;0.47;;;;;;;;;;5052472;28;20228;-68
2021/12/02 14:50:58;;;;;;;0.40;0.40;;;;;;;;;;5040441;28;20197;-69
2021/12/02 14:53:28;;;;;;;0.30;0.30;;;;;;;;;;5047684;28;20274;-68
2021/12/02 14:55:57;;;;;;;0.60;0.30;;;;;;;;;;5038089;28;20215;-69
2021/12/02 14:58:26;;;;;;;0.60;0.60;;;;;;;;;;5032390;28;20242;-69
2021/12/02 15:01:09;;;;;;;0.43;0.33;;;;;;;;;;5033887;28;20309;-69
2021/12/02 15:03:35;;;;;;;0.60;0.50;;;;;;;;;;5042842;28;20243;-71
2021/12/02 15:06:02;;;;;;;1.03;0.50;;;;;;;;;;5052710;28;20237;-70
2021/12/02 15:08:34;;;;;;;0.63;0.60;;;;;;;;;;5049263;28;20263;-71
2021/12/02 15:11:01;;;;;;;0.40;0.40;;;;;;;;;;5044594;28;20643;-69
2021/12/02 15:13:41;;;;;;;0.20;0.20;;;;;;;;;;5050308;28;20212;-71
2021/12/02 15:16:07;;;;;;;0.30;0.30;;;;;;;;;;5050698;28;20201;-71
2021/12/02 15:18:34;;;;;;;0.50;0.40;;;;;;;;;;5051270;28;20217;-71
2021/12/02 15:21:02;;;;;;;0.57;0.50;;;;;;;;;;5051160;28;20292;-70
2021/12/02 15:23:31;;;;;;;0.30;0.30;;;;;;;;;;5050114;28;20206;-70
2021/12/02 15:25:57;;;;;;;0.40;0.40;;;;;;;;;;5050989;28;20975;-71
2021/12/02 15:28:26;;;;;;;0.70;0.70;;;;;;;;;;5051015;28;20309;-70
2021/12/02 15:30:55;;;;;;;0.57;0.50;;;;;;;;;;5051019;28;20206;-72
2021/12/02 15:33:28;;;;;;;1.03;0.90;;;;;;;;;;5050539;28;20205;-71
2021/12/02 15:35:56;;;;;;;3.17;0.90;;;;;;;;;;5050689;28;20292;-70
2021/12/02 15:38:23;;;;;;;2.60;1.03;;;;;;;;;;5051520;28;20263;-70
2021/12/02 15:40:52;;;;;;;1.83;0.87;;;;;;;;;;5046814;28;20211;-70
2021/12/02 15:43:20;;;;;;;1.97;1.03;;;;;;;;;;5042961;28;20268;-70
2021/12/02 15:45:47;;;;;;;1.57;0.97;;;;;;;;;;5045094;28;20557;-71
2021/12/02 15:48:14;;;;;;;2.37;1.10;;;;;;;;;;5046372;28;20238;-70